Hlavní strana
METAR-TAF:

METAR-TAF

Letiště :

Mezinárodní letiště Boryspil

Boryspil, Ukrajina

zeměpisná šířka: 50-20N, zeměpisná délka: 030-58E, výška: 121 m

Aktuální stav počasí

Zpráva byla vytvořena před 16 minutami, v 22:30 UTC
Jihovýchodní vítr 12 kt
Teplota -7°C
Vlhkost vzduchu 67%
Tlak 1035 hPa
Viditelnost 10 km a více
Žádná oblačnost pod 1500 m, nevyskytují se cumulonimby.

METAR: UKBB 222230Z 13006MPS CAVOK M07/M12 Q1035 R88/D NOSIG

Čas: 00:46 (22:46 UTC)

Předpověď počasí

Zpráva byla vytvořena před 5 hodinami a 46 minutami, v 17:00 UTC
Předpověď platná od 22 v 18 UTC do 23 v 18 UTC
Východojihovýchodní vítr 10 kt s nárazy do 21 kt
Viditelnost 10 km a více
Dočasný
od 23 v 00 UTC do 23 v 06 UTC
Východní vítr 8 kt
Viditelnost: 2000 m
Polojasno ve výšce 500 ft
kouřmo

TAF: UKBB 221700Z 2218/2318 11005G11MPS 9999 NSC TXM03/2312Z TNM11/2306Z TEMPO 2300/2306 10004MPS 2000 BR SCT005

Stav a předpovědi počasí z více než 4 000 letišť (zprávy METAR a TAF).

Červené a žluté tečky na mapě představují dostupné meteorologické stanice.

Když kurzor umístíte na tečku, zobrazí se název stanice.

Pak kliknutím zobrazíte stav a předpověď počasí.

Chcete-li změnit mapu, kliknutím na zelené tlačítko se znaménkem +mapu přiblížíte, kliknutím na zelené tlačítko se znaménkem – mapu oddálíte a kliknutím na zelené šipky přejdete na sousední mapy.


METAR-TAF: